Time;durP1;ratioP1;P1;durP2;ratioP2;P2;SDS_P1;SDS_P2;PMS_P1;PMS_P2;Temp;Humidity;BMP_temperature;BMP_pressure;BME280_temperature;BME280_humidity;BME280_pressure;Samples;Min_cycle;Max_cycle;Signal;HPM_P1;HPM_P2
2023/05/08 00:01:05;;;;;;;1.70;1.30;;;;;;;5.52;100.00;100242.63;109524;1252;75616;-67
2023/05/08 00:03:31;;;;;;;2.50;1.60;;;;;;;5.53;100.00;100243.08;109390;1253;68706;-67
2023/05/08 00:05:59;;;;;;;1.00;0.90;;;;;;;5.52;100.00;100241.92;109556;1251;72805;-68
2023/05/08 00:08:25;;;;;;;1.60;1.20;;;;;;;5.52;100.00;100247.73;109537;1251;63047;-66
2023/05/08 00:10:52;;;;;;;1.80;1.20;;;;;;;5.52;100.00;100242.81;109586;1251;61711;-68
2023/05/08 00:13:19;;;;;;;2.40;1.50;;;;;;;5.53;100.00;100238.73;109635;1251;75597;-67
2023/05/08 00:15:46;;;;;;;2.20;1.20;;;;;;;5.53;100.00;100242.90;109576;1251;68393;-67
2023/05/08 00:18:13;;;;;;;2.40;1.50;;;;;;;5.52;100.00;100245.10;109453;1251;74783;-68
2023/05/08 00:20:40;;;;;;;1.60;1.30;;;;;;;5.51;100.00;100247.34;109535;1254;62204;-67
2023/05/08 00:23:07;;;;;;;2.10;1.30;;;;;;;5.49;100.00;100249.23;109554;1252;62113;-68
2023/05/08 00:25:34;;;;;;;1.40;1.30;;;;;;;5.49;100.00;100249.27;109567;1252;75754;-68
2023/05/08 00:28:00;;;;;;;1.70;1.40;;;;;;;5.50;100.00;100250.01;109612;1251;66489;-68
2023/05/08 00:30:27;;;;;;;1.30;1.00;;;;;;;5.52;100.00;100250.95;109536;1251;73814;-67
2023/05/08 00:32:54;;;;;;;2.60;1.30;;;;;;;5.51;100.00;100249.94;109606;1252;62447;-68
2023/05/08 00:35:21;;;;;;;1.80;1.30;;;;;;;5.51;100.00;100251.69;109560;1258;60959;-67
2023/05/08 00:37:48;;;;;;;1.20;1.10;;;;;;;5.53;100.00;100252.79;109563;1256;76586;-67
2023/05/08 00:40:15;;;;;;;2.20;1.20;;;;;;;5.56;100.00;100252.95;109614;1251;66906;-67
2023/05/08 00:42:42;;;;;;;2.30;1.20;;;;;;;5.58;100.00;100255.58;109582;1254;73302;-67
2023/05/08 00:45:09;;;;;;;2.80;1.50;;;;;;;5.59;100.00;100258.82;109627;1251;61097;-68
2023/05/08 00:47:36;;;;;;;1.10;1.00;;;;;;;5.61;100.00;100258.70;109579;1254;61762;-66
2023/05/08 00:50:04;;;;;;;1.40;1.20;;;;;;;5.60;100.00;100258.69;109439;1251;74899;-68
2023/05/08 00:52:31;;;;;;;1.90;1.70;;;;;;;5.62;100.00;100259.30;109592;1251;70286;-67
2023/05/08 00:55:00;;;;;;;1.30;1.20;;;;;;;5.63;100.00;100256.09;109430;1254;72393;-67
2023/05/08 00:57:28;;;;;;;1.90;1.30;;;;;;;5.62;100.00;100258.44;109560;1253;62009;-68
2023/05/08 00:59:55;;;;;;;1.50;1.20;;;;;;;5.61;100.00;100259.17;109630;1256;61625;-68
2023/05/08 01:02:22;;;;;;;1.20;0.80;;;;;;;5.61;100.00;100257.21;109249;1251;75670;-67
2023/05/08 01:04:49;;;;;;;1.50;1.30;;;;;;;5.61;100.00;100261.63;109580;1253;69315;-68
2023/05/08 01:07:16;;;;;;;1.10;1.00;;;;;;;5.62;100.00;100264.07;109414;1251;73788;-68
2023/05/08 01:09:43;;;;;;;1.20;0.90;;;;;;;5.62;100.00;100266.52;109244;1260;62391;-68
2023/05/08 01:12:27;;;;;;;1.20;1.00;;;;;;;5.63;100.00;100271.69;109492;1251;61413;-68
2023/05/08 01:15:05;;;;;;;1.50;1.00;;;;;;;5.65;100.00;100272.44;109565;1253;74991;-67
2023/05/08 01:17:37;;;;;;;1.30;1.20;;;;;;;5.69;100.00;100274.76;109605;1251;69130;-67
2023/05/08 01:20:25;;;;;;;1.00;1.00;;;;;;;5.72;100.00;100276.59;109554;1251;73911;-67
2023/05/08 01:22:57;;;;;;;1.20;1.10;;;;;;;5.75;100.00;100271.85;109502;1254;60882;-67
2023/05/08 01:25:36;;;;;;;1.40;1.10;;;;;;;5.75;100.00;100276.77;109562;1254;59070;-67
2023/05/08 01:28:25;;;;;;;1.10;1.10;;;;;;;5.76;100.00;100276.47;109546;1254;74866;-67
2023/05/08 01:31:14;;;;;;;2.00;1.30;;;;;;;5.77;100.00;100276.23;109653;1251;70412;-67
2023/05/08 01:33:50;;;;;;;2.30;1.00;;;;;;;5.78;100.00;100271.95;109290;1251;74971;-68
2023/05/08 01:36:19;;;;;;;;;;;;;;;5.79;100.00;100270.79;109608;1251;61159;-67
2023/05/08 01:38:52;;;;;;;1.50;1.10;;;;;;;5.81;100.00;100269.60;109592;1253;60168;-67
2023/05/08 01:41:24;;;;;;;0.80;0.80;;;;;;;5.78;100.00;100267.57;109525;1254;76737;-67
2023/05/08 01:43:54;;;;;;;2.40;2.20;;;;;;;5.72;100.00;100268.52;109586;1251;67992;-67
2023/05/08 01:46:25;;;;;;;2.50;1.30;;;;;;;5.69;100.00;100267.36;109597;1251;74350;-66
2023/05/08 01:49:05;;;;;;;1.20;1.00;;;;;;;5.66;100.00;100265.16;109481;1251;63204;-67
2023/05/08 01:51:37;;;;;;;2.00;0.90;;;;;;;5.62;100.00;100268.23;109602;1256;60847;-67
2023/05/08 01:54:06;;;;;;;1.20;1.10;;;;;;;5.62;100.00;100267.04;109273;1251;75567;-68
2023/05/08 01:56:36;;;;;;;3.50;1.20;;;;;;;5.61;100.00;100265.89;109304;1251;68463;-67
2023/05/08 01:59:03;;;;;;;2.00;1.40;;;;;;;5.60;100.00;100265.06;109400;1256;73038;-68
2023/05/08 02:01:31;;;;;;;1.20;1.00;;;;;;;5.57;100.00;100258.27;109385;1255;62112;-67
2023/05/08 02:03:57;;;;;;;1.40;1.10;;;;;;;5.53;100.00;100257.39;109337;1251;62675;-67
2023/05/08 02:06:25;;;;;;;1.10;1.00;;;;;;;5.51;100.00;100254.35;109344;1251;76640;-68
2023/05/08 02:08:52;;;;;;;1.10;1.00;;;;;;;5.50;100.00;100257.81;109304;1255;70239;-67
2023/05/08 02:11:19;;;;;;;2.40;1.10;;;;;;;5.48;100.00;100256.20;109511;1251;71711;-66
2023/05/08 02:13:46;;;;;;;0.90;0.90;;;;;;;5.46;100.00;100257.04;109489;1252;61167;-68
2023/05/08 02:16:13;;;;;;;2.30;1.30;;;;;;;5.45;100.00;100252.91;109330;1251;62566;-67
2023/05/08 02:18:43;;;;;;;1.70;1.20;;;;;;;5.43;100.00;100254.98;109474;1251;76028;-67
2023/05/08 02:21:10;;;;;;;3.70;1.30;;;;;;;5.42;100.00;100252.06;109618;1251;70191;-67
2023/05/08 02:23:36;;;;;;;1.40;0.90;;;;;;;5.41;100.00;100253.41;109551;1251;75203;-67
2023/05/08 02:26:03;;;;;;;1.20;1.10;;;;;;;5.39;100.00;100251.78;109292;1254;60398;-67
2023/05/08 02:28:30;;;;;;;1.10;1.00;;;;;;;5.38;100.00;100251.85;109568;1256;61289;-67
2023/05/08 02:30:57;;;;;;;1.00;1.00;;;;;;;5.38;100.00;100256.80;109524;1251;76920;-66
2023/05/08 02:33:24;;;;;;;1.40;1.20;;;;;;;5.37;100.00;100249.81;109337;1251;70307;-67
2023/05/08 02:35:51;;;;;;;0.90;0.80;;;;;;;5.38;100.00;100249.57;109243;1254;74790;-67
2023/05/08 02:38:19;;;;;;;1.30;0.90;;;;;;;5.38;100.00;100248.33;109373;1251;63035;-67
2023/05/08 02:40:48;;;;;;;1.50;1.10;;;;;;;5.38;100.00;100250.27;109480;1251;62403;-67
2023/05/08 02:43:15;;;;;;;1.20;1.10;;;;;;;5.39;100.00;100251.23;109440;1251;75528;-67
2023/05/08 02:45:49;;;;;;;1.60;1.00;;;;;;;5.41;100.00;100251.30;109453;1251;67425;-67
2023/05/08 02:48:31;;;;;;;1.70;1.20;;;;;;;5.41;100.00;100251.83;109421;1257;74373;-67
2023/05/08 02:51:01;;;;;;;1.20;1.10;;;;;;;5.39;100.00;100253.20;109394;1259;61244;-67
2023/05/08 02:53:32;;;;;;;1.20;1.10;;;;;;;5.38;100.00;100255.08;109452;1251;61124;-67
2023/05/08 02:56:10;;;;;;;1.10;0.90;;;;;;;5.36;100.00;100256.77;109282;1252;77098;-66
2023/05/08 02:58:41;;;;;;;1.30;1.20;;;;;;;5.36;100.00;100256.41;109220;1251;67978;-67
2023/05/08 03:01:23;;;;;;;2.30;1.00;;;;;;;5.36;100.00;100258.38;109478;1254;74035;-67
2023/05/08 03:03:59;;;;;;;1.30;0.90;;;;;;;5.34;100.00;100256.55;109523;1251;62229;-67
2023/05/08 03:06:26;;;;;;;1.50;1.30;;;;;;;5.35;100.00;100258.05;109410;1251;62241;-67
2023/05/08 03:08:53;;;;;;;2.30;1.20;;;;;;;5.36;100.00;100261.35;109394;1251;76788;-67
2023/05/08 03:11:24;;;;;;;1.80;1.20;;;;;;;5.37;100.00;100265.31;109263;1251;69723;-67
2023/05/08 03:13:51;;;;;;;2.30;1.10;;;;;;;5.39;100.00;100269.94;109434;1254;72773;-67
2023/05/08 03:16:21;;;;;;;1.80;1.60;;;;;;;5.39;100.00;100267.14;109338;1254;60736;-68
2023/05/08 03:18:57;;;;;;;1.40;1.30;;;;;;;5.39;100.00;100270.63;109318;1251;61451;-67
2023/05/08 03:21:27;;;;;;;1.60;1.50;;;;;;;5.40;100.00;100274.42;109325;1251;74628;-67
2023/05/08 03:23:53;;;;;;;1.40;1.20;;;;;;;5.42;100.00;100274.77;109405;1251;69088;-67
2023/05/08 03:26:21;;;;;;;2.40;1.30;;;;;;;5.44;100.00;100273.20;109296;1254;74744;-68
2023/05/08 03:28:51;;;;;;;1.70;1.30;;;;;;;5.46;100.00;100272.53;109528;1254;63951;-67
2023/05/08 03:31:20;;;;;;;2.10;1.60;;;;;;;5.51;100.00;100274.27;109593;1251;62361;-68
2023/05/08 03:33:47;;;;;;;3.80;1.40;;;;;;;5.55;100.00;100276.89;109251;1251;76602;-67
2023/05/08 03:36:14;;;;;;;2.60;1.40;;;;;;;5.60;100.00;100275.30;109464;1251;69399;-68
2023/05/08 03:38:41;;;;;;;2.60;1.90;;;;;;;5.64;100.00;100278.36;109554;1251;72130;-67
2023/05/08 03:41:08;;;;;;;1.40;1.30;;;;;;;5.69;100.00;100279.73;109302;1251;63601;-67
2023/05/08 03:43:35;;;;;;;2.80;1.60;;;;;;;5.73;100.00;100278.99;109620;1251;62435;-66
2023/05/08 03:46:08;;;;;;;2.60;1.40;;;;;;;5.78;100.00;100274.75;109421;1251;75311;-66
2023/05/08 03:48:35;;;;;;;2.90;1.60;;;;;;;5.82;100.00;100275.27;109396;1251;69668;-66
2023/05/08 03:51:03;;;;;;;1.70;1.60;;;;;;;5.85;100.00;100273.48;109280;1257;74861;-66
2023/05/08 03:53:31;;;;;;;2.30;1.80;;;;;;;5.89;100.00;100276.03;109429;1251;61892;-66
2023/05/08 03:55:59;;;;;;;2.10;1.70;;;;;;;5.93;100.00;100277.59;109534;1251;62025;-66
2023/05/08 03:58:37;;;;;;;8.60;2.00;;;;;;;5.99;100.00;100282.05;109597;1251;75636;-67
2023/05/08 04:01:12;;;;;;;2.30;1.60;;;;;;;6.04;100.00;100282.23;109396;1251;68567;-67
2023/05/08 04:03:49;;;;;;;2.90;1.80;;;;;;;6.07;100.00;100283.91;109404;1251;74968;-67
2023/05/08 04:06:21;;;;;;;2.70;1.30;;;;;;;6.10;100.00;100283.86;109371;1252;61871;-66
2023/05/08 04:08:49;;;;;;;1.90;1.80;;;;;;;6.13;100.00;100287.45;109525;1251;60876;-67
2023/05/08 04:11:29;;;;;;;1.90;1.70;;;;;;;6.15;100.00;100288.52;109430;1251;77219;-68
2023/05/08 04:13:59;;;;;;;1.80;1.60;;;;;;;6.17;100.00;100290.26;109559;1251;70171;-67
2023/05/08 04:16:27;;;;;;;2.70;2.20;;;;;;;6.20;100.00;100290.00;109409;1251;73765;-68
2023/05/08 04:18:58;;;;;;;3.00;2.30;;;;;;;6.26;100.00;100294.17;109496;1254;59660;-67
2023/05/08 04:21:25;;;;;;;1.80;1.60;;;;;;;6.28;100.00;100297.15;109425;1251;61346;-67
2023/05/08 04:23:53;;;;;;;1.80;1.70;;;;;;;6.30;100.00;100297.54;109171;1251;74974;-66
2023/05/08 04:26:21;;;;;;;1.80;1.60;;;;;;;6.33;100.00;100299.45;109456;1251;69932;-67
2023/05/08 04:28:49;;;;;;;1.70;1.60;;;;;;;6.38;100.00;100302.67;109256;1251;72794;-67
2023/05/08 04:31:15;;;;;;;2.50;1.90;;;;;;;6.44;100.00;100302.74;109383;1254;63045;-67
2023/05/08 04:33:43;;;;;;;2.20;1.60;;;;;;;6.49;100.00;100300.16;109382;1251;61079;-67
2023/05/08 04:36:11;;;;;;;2.70;2.00;;;;;;;6.56;100.00;100300.52;109571;1251;75579;-66
2023/05/08 04:38:39;;;;;;;3.50;1.80;;;;;;;6.60;100.00;100302.95;109426;1251;69017;-67
2023/05/08 04:41:06;;;;;;;2.20;2.00;;;;;;;6.66;100.00;100303.22;109355;1254;74740;-67
2023/05/08 04:43:34;;;;;;;3.30;1.70;;;;;;;6.70;100.00;100308.36;109558;1251;63651;-67
2023/05/08 04:46:01;;;;;;;3.50;2.10;;;;;;;6.70;100.00;100308.00;109378;1254;59155;-67
2023/05/08 04:48:30;;;;;;;2.40;1.80;;;;;;;6.71;100.00;100310.00;109542;1253;76988;-67
2023/05/08 04:50:57;;;;;;;2.30;1.90;;;;;;;6.72;100.00;100307.44;109387;1251;70023;-66
2023/05/08 04:53:24;;;;;;;3.00;1.90;;;;;;;6.76;100.00;100312.45;109474;1254;75143;-67
2023/05/08 04:55:51;;;;;;;4.30;2.10;;;;;;;6.80;100.00;100314.38;109585;1251;62600;-67
2023/05/08 04:58:18;;;;;;;1.70;1.60;;;;;;;6.83;100.00;100315.34;109517;1251;61641;-66
2023/05/08 05:00:45;;;;;;;2.40;1.80;;;;;;;6.86;100.00;100319.52;109523;1251;75918;-68
2023/05/08 05:03:12;;;;;;;3.40;1.50;;;;;;;6.88;100.00;100320.45;109385;1251;67357;-66
2023/05/08 05:05:39;;;;;;;2.20;1.80;;;;;;;6.91;100.00;100319.81;109468;1251;73456;-66
2023/05/08 05:08:06;;;;;;;1.80;1.70;;;;;;;6.95;100.00;100321.59;109430;1251;61011;-66
2023/05/08 05:10:33;;;;;;;2.20;2.00;;;;;;;6.99;100.00;100319.88;109521;1251;60321;-68
2023/05/08 05:13:00;;;;;;;1.50;1.40;;;;;;;7.02;100.00;100317.84;109515;1251;75379;-71
2023/05/08 05:15:27;;;;;;;1.60;1.40;;;;;;;7.04;100.00;100314.80;109557;1251;70149;-68
2023/05/08 05:17:54;;;;;;;2.30;1.70;;;;;;;7.09;100.00;100316.73;109608;1251;74294;-64
2023/05/08 05:20:21;;;;;;;1.80;1.60;;;;;;;7.11;100.00;100322.00;109424;1251;64319;-67
2023/05/08 05:22:48;;;;;;;2.00;1.50;;;;;;;7.14;100.00;100322.59;109396;1254;60317;-66
2023/05/08 05:25:15;;;;;;;2.80;1.50;;;;;;;7.18;100.00;100325.66;109456;1251;76826;-65
2023/05/08 05:27:42;;;;;;;2.30;1.70;;;;;;;7.21;100.00;100326.27;109414;1251;70437;-65
2023/05/08 05:30:09;;;;;;;2.20;1.80;;;;;;;7.25;100.00;100328.95;109480;1251;73904;-65
2023/05/08 05:32:36;;;;;;;3.50;1.50;;;;;;;7.30;100.00;100327.64;109374;1254;63363;-65
2023/05/08 05:35:04;;;;;;;1.60;1.50;;;;;;;7.35;100.00;100327.33;109364;1251;61057;-66
2023/05/08 05:37:31;;;;;;;2.60;1.40;;;;;;;7.42;100.00;100328.20;109598;1251;75661;-65
2023/05/08 05:39:57;;;;;;;1.70;1.60;;;;;;;7.47;100.00;100328.44;109580;1251;69864;-68
2023/05/08 05:42:24;;;;;;;2.20;1.60;;;;;;;7.55;100.00;100330.23;109565;1251;75143;-68
2023/05/08 05:44:53;;;;;;;1.30;1.20;;;;;;;7.64;100.00;100330.58;109444;1251;61141;-67
2023/05/08 05:47:20;;;;;;;4.30;2.20;;;;;;;7.68;100.00;100333.04;109570;1251;59702;-72
2023/05/08 05:49:47;;;;;;;1.60;1.50;;;;;;;7.72;100.00;100337.80;109515;1251;74207;-67
2023/05/08 05:52:14;;;;;;;4.60;1.80;;;;;;;7.78;100.00;100336.41;109452;1251;68538;-67
2023/05/08 05:54:41;;;;;;;3.20;1.80;;;;;;;7.82;100.00;100339.73;109566;1253;74720;-67
2023/05/08 05:57:08;;;;;;;2.20;2.00;;;;;;;7.88;100.00;100342.21;109317;1251;61028;-70
2023/05/08 05:59:36;;;;;;;3.50;1.80;;;;;;;7.98;100.00;100338.29;109536;1251;61638;-72
2023/05/08 06:02:03;;;;;;;2.10;1.90;;;;;;;8.10;100.00;100336.73;109524;1251;76746;-67
2023/05/08 06:04:30;;;;;;;3.50;2.20;;;;;;;8.24;100.00;100333.93;109507;1251;69980;-67
2023/05/08 06:06:57;;;;;;;6.10;2.20;;;;;;;8.34;100.00;100334.65;109558;1251;74099;-67
2023/05/08 06:09:24;;;;;;;2.30;2.10;;;;;;;8.42;100.00;100336.09;109427;1253;60947;-67
2023/05/08 06:11:51;;;;;;;1.90;1.60;;;;;;;8.50;100.00;100324.34;109500;1253;61575;-67
2023/05/08 06:14:18;;;;;;;1.90;1.80;;;;;;;8.63;100.00;100325.83;109573;1251;76336;-67
2023/05/08 06:16:44;;;;;;;2.00;1.60;;;;;;;8.70;100.00;100325.88;109612;1251;67985;-64
2023/05/08 06:19:11;;;;;;;1.80;1.70;;;;;;;8.71;100.00;100323.88;109621;1251;74873;-67
2023/05/08 06:21:38;;;;;;;1.80;1.70;;;;;;;8.75;100.00;100325.63;109555;1253;62544;-69
2023/05/08 06:24:06;;;;;;;3.10;2.70;;;;;;;8.82;100.00;100328.88;109405;1251;62873;-65
2023/05/08 06:26:33;;;;;;;1.80;1.60;;;;;;;8.86;100.00;100328.35;109584;1251;76880;-66
2023/05/08 06:29:00;;;;;;;1.90;1.80;;;;;;;8.86;100.00;100331.23;109594;1251;68783;-66
2023/05/08 06:31:27;;;;;;;1.90;1.70;;;;;;;8.86;100.00;100333.98;109624;1251;74932;-69
2023/05/08 06:33:53;;;;;;;3.10;2.00;;;;;;;8.88;100.00;100334.14;109556;1251;59877;-68
2023/05/08 06:36:20;;;;;;;2.10;1.90;;;;;;;8.91;100.00;100336.05;109556;1251;61762;-67
2023/05/08 06:38:47;;;;;;;1.90;1.70;;;;;;;8.96;100.00;100340.20;109595;1251;76058;-66
2023/05/08 06:41:14;;;;;;;2.10;1.80;;;;;;;9.02;100.00;100339.94;109612;1251;68971;-66
2023/05/08 06:43:41;;;;;;;2.90;1.90;;;;;;;9.05;100.00;100339.27;109605;1251;74727;-66
2023/05/08 06:46:07;;;;;;;3.00;1.90;;;;;;;9.11;100.00;100342.10;109515;1252;62593;-67
2023/05/08 06:48:34;;;;;;;3.30;1.90;;;;;;;9.16;100.00;100338.15;109439;1251;61104;-67
2023/05/08 06:51:02;;;;;;;1.80;1.60;;;;;;;9.19;100.00;100337.49;109657;1251;73385;-71
2023/05/08 06:53:29;;;;;;;4.80;2.40;;;;;;;9.24;100.00;100341.62;109594;1251;69753;-66
2023/05/08 06:55:59;;;;;;;2.30;1.80;;;;;;;9.27;100.00;100341.89;109539;1251;74951;-68
2023/05/08 06:58:26;;;;;;;2.00;1.80;;;;;;;9.27;100.00;100344.50;109585;1253;61436;-66
2023/05/08 07:00:53;;;;;;;1.80;1.60;;;;;;;9.26;100.00;100344.05;109547;1251;62177;-68
2023/05/08 07:03:20;;;;;;;3.00;1.80;;;;;;;9.25;100.00;100348.24;109537;1251;77057;-65
2023/05/08 07:05:47;;;;;;;2.70;2.00;;;;;;;9.23;100.00;100349.48;109547;1251;69730;-68
2023/05/08 07:08:14;;;;;;;4.90;2.30;;;;;;;9.24;100.00;100350.30;109536;1251;73041;-67
2023/05/08 07:10:40;;;;;;;3.00;1.90;;;;;;;9.28;100.00;100352.37;109550;1251;58971;-68
2023/05/08 07:13:07;;;;;;;2.70;1.70;;;;;;;9.27;100.00;100357.11;109626;1251;59368;-69
2023/05/08 07:15:34;;;;;;;3.30;1.90;;;;;;;9.25;100.00;100360.84;109532;1251;76471;-69
2023/05/08 07:18:01;;;;;;;2.50;2.00;;;;;;;9.21;100.00;100362.21;109485;1251;70149;-69
2023/05/08 07:20:28;;;;;;;5.80;2.30;;;;;;;9.17;100.00;100359.64;109510;1251;74859;-68
2023/05/08 07:22:55;;;;;;;5.10;2.20;;;;;;;9.13;100.00;100361.38;109517;1251;60401;-69
2023/05/08 07:25:22;;;;;;;4.40;1.70;;;;;;;9.10;100.00;100360.75;109562;1251;61378;-72
2023/05/08 07:27:48;;;;;;;2.80;1.90;;;;;;;9.08;100.00;100361.13;109580;1251;76569;-70
2023/05/08 07:30:15;;;;;;;3.50;1.80;;;;;;;9.07;100.00;100361.58;109575;1251;69051;-70
2023/05/08 07:32:42;;;;;;;2.20;1.70;;;;;;;9.11;100.00;100362.13;109617;1251;74028;-70
2023/05/08 07:35:11;;;;;;;7.10;2.10;;;;;;;9.13;100.00;100362.08;109538;1251;60194;-72
2023/05/08 07:37:39;;;;;;;2.10;1.60;;;;;;;9.15;100.00;100365.46;109652;1251;59545;-75
2023/05/08 07:40:06;;;;;;;2.30;1.80;;;;;;;9.14;100.00;100365.19;109601;1251;77067;-69
2023/05/08 07:42:40;;;;;;;2.10;1.90;;;;;;;9.15;100.00;100372.33;109424;1251;70165;-72
2023/05/08 07:45:08;;;;;;;4.30;1.80;;;;;;;9.14;100.00;100371.92;109579;1251;74399;-70
2023/05/08 07:47:35;;;;;;;2.20;1.80;;;;;;;9.14;100.00;100368.70;109527;1253;61465;-70
2023/05/08 07:50:02;;;;;;;3.00;2.00;;;;;;;9.16;100.00;100369.45;109466;1251;61578;-69
2023/05/08 07:52:28;;;;;;;4.40;2.30;;;;;;;9.22;100.00;100369.20;109455;1251;76449;-69
2023/05/08 07:54:55;;;;;;;3.10;1.90;;;;;;;9.34;100.00;100366.51;109606;1253;69968;-67
2023/05/08 07:57:22;;;;;;;2.70;1.80;;;;;;;9.47;100.00;100368.48;109407;1251;71846;-69
2023/05/08 07:59:49;;;;;;;7.00;1.80;;;;;;;9.57;100.00;100368.10;109586;1251;59716;-72
2023/05/08 08:02:16;;;;;;;4.00;2.00;;;;;;;9.67;100.00;100371.05;109466;1255;61214;-70
2023/05/08 08:04:43;;;;;;;3.60;2.20;;;;;;;9.77;100.00;100372.71;109571;1251;76896;-69
2023/05/08 08:07:09;;;;;;;6.10;2.60;;;;;;;9.86;100.00;100372.27;109624;1251;70254;-61
2023/05/08 08:09:36;;;;;;;3.40;1.90;;;;;;;9.98;100.00;100368.27;109512;1251;73766;-74
2023/05/08 08:12:03;;;;;;;2.40;2.10;;;;;;;10.19;100.00;100367.94;109499;1251;59963;-71
2023/05/08 08:14:30;;;;;;;2.90;1.90;;;;;;;10.31;100.00;100366.20;109526;1253;61295;-71
2023/05/08 08:16:57;;;;;;;3.50;2.00;;;;;;;10.45;100.00;100360.92;109519;1251;75603;-72
2023/05/08 08:19:24;;;;;;;1.70;1.50;;;;;;;10.74;100.00;100363.23;109538;1251;68846;-71
2023/05/08 08:21:51;;;;;;;1.70;1.50;;;;;;;11.19;100.00;100362.05;109622;1251;74820;-72
2023/05/08 08:24:17;;;;;;;1.90;1.50;;;;;;;11.77;100.00;100359.19;109524;1253;61669;-70
2023/05/08 08:26:44;;;;;;;1.90;1.50;;;;;;;12.23;99.87;100357.81;109548;1251;61101;-72
2023/05/08 08:29:11;;;;;;;3.20;1.70;;;;;;;12.47;95.99;100356.66;109537;1251;76592;-70
2023/05/08 08:31:38;;;;;;;1.80;1.60;;;;;;;12.56;93.50;100358.20;109504;1251;67704;-71
2023/05/08 08:34:05;;;;;;;1.80;1.60;;;;;;;12.61;91.85;100365.80;109542;1251;74616;-72
2023/05/08 08:36:32;;;;;;;1.70;1.60;;;;;;;12.55;86.97;100362.77;109595;1251;62351;-71
2023/05/08 08:38:59;;;;;;;2.30;1.90;;;;;;;12.39;85.66;100363.95;109552;1251;62266;-72
2023/05/08 08:41:26;;;;;;;1.90;1.50;;;;;;;12.28;86.26;100365.88;109490;1251;73519;-71
2023/05/08 08:43:54;;;;;;;1.80;1.50;;;;;;;12.29;85.96;100369.41;109553;1251;68120;-70
2023/05/08 08:46:23;;;;;;;3.30;1.40;;;;;;;12.21;85.22;100362.80;109516;1251;74127;-71
2023/05/08 08:48:55;;;;;;;2.30;1.90;;;;;;;12.22;86.33;100361.07;109387;1251;62539;-71
2023/05/08 08:51:31;;;;;;;1.80;1.70;;;;;;;12.38;85.83;100360.31;109429;1251;62014;-72
2023/05/08 08:54:06;;;;;;;2.90;2.00;;;;;;;12.64;84.49;100354.14;109423;1251;75688;-72
2023/05/08 08:56:33;;;;;;;1.60;1.30;;;;;;;13.00;82.69;100352.73;109566;1251;70735;-72
2023/05/08 08:59:00;;;;;;;1.80;1.60;;;;;;;13.27;79.39;100351.10;109477;1252;74634;-72
2023/05/08 09:01:30;;;;;;;2.20;1.80;;;;;;;13.50;77.09;100352.59;109549;1251;61104;-71
2023/05/08 09:03:58;;;;;;;2.50;2.00;;;;;;;13.98;73.88;100350.83;109588;1253;61176;-72
2023/05/08 09:06:26;;;;;;;5.50;1.70;;;;;;;13.83;72.54;100358.30;109531;1251;77117;-73
2023/05/08 09:08:55;;;;;;;1.70;1.60;;;;;;;13.56;71.68;100352.88;109595;1251;67606;-73
2023/05/08 09:11:23;;;;;;;1.60;1.50;;;;;;;13.33;71.31;100354.80;109583;1251;70758;-70
2023/05/08 09:13:50;;;;;;;2.60;1.60;;;;;;;13.24;71.52;100350.89;109512;1253;62213;-70
2023/05/08 09:16:17;;;;;;;3.20;1.80;;;;;;;13.29;73.39;100351.16;109380;1251;221032;-72
2023/05/08 09:18:44;;;;;;;3.30;1.70;;;;;;;13.31;73.49;100348.65;109443;1251;75665;-70
2023/05/08 09:21:11;;;;;;;1.80;1.70;;;;;;;13.28;75.38;100348.86;109493;1251;69699;-75
2023/05/08 09:23:54;;;;;;;1.60;1.40;;;;;;;13.25;74.79;100350.77;109289;1251;74328;-73
2023/05/08 09:26:34;;;;;;;1.80;1.40;;;;;;;13.22;75.33;100354.56;109397;1253;60680;-68
2023/05/08 09:29:17;;;;;;;2.40;1.90;;;;;;;13.18;76.78;100354.33;109568;1251;61210;-76
2023/05/08 09:31:48;;;;;;;1.50;1.40;;;;;;;13.22;76.99;100355.83;109513;1251;76768;-72
2023/05/08 09:34:41;;;;;;;2.20;1.50;;;;;;;13.28;78.42;100356.47;109546;1251;68022;-71
2023/05/08 09:37:08;;;;;;;2.30;1.60;;;;;;;13.41;75.57;100352.14;109533;1251;74615;-73
2023/05/08 09:39:35;;;;;;;4.50;1.50;;;;;;;13.74;75.60;100350.77;109471;1253;62419;-71
2023/05/08 09:42:05;;;;;;;6.00;1.30;;;;;;;14.31;73.73;100345.08;109493;1251;62403;-71
2023/05/08 09:44:47;;;;;;;4.90;1.40;;;;;;;14.50;70.16;100338.23;109362;1251;76706;-71
2023/05/08 09:47:18;;;;;;;1.60;1.50;;;;;;;14.36;67.14;100340.91;109501;1251;66786;-70
2023/05/08 09:50:02;;;;;;;3.00;1.60;;;;;;;14.03;64.69;100343.69;109512;1251;73509;-70
2023/05/08 09:52:29;;;;;;;1.60;1.50;;;;;;;13.67;64.07;100342.56;109556;1251;61443;-69
2023/05/08 09:55:03;;;;;;;1.50;1.40;;;;;;;13.43;65.16;100342.54;109466;1252;62488;-70
2023/05/08 09:57:31;;;;;;;1.60;1.50;;;;;;;13.20;66.69;100344.23;109395;1251;77204;-67
2023/05/08 10:00:11;;;;;;;1.50;1.30;;;;;;;13.04;67.94;100341.77;109549;1250;70166;-68
2023/05/08 10:02:40;;;;;;;3.80;1.70;;;;;;;12.88;69.17;100340.48;109506;1251;72948;-68
2023/05/08 10:05:30;;;;;;;1.90;1.40;;;;;;;12.81;70.26;100343.23;109514;1251;62722;-67
2023/05/08 10:07:58;;;;;;;1.70;1.60;;;;;;;12.75;69.89;100338.64;109492;1251;61241;-68
2023/05/08 10:10:26;;;;;;;3.00;1.40;;;;;;;12.73;69.37;100338.67;109519;1251;76391;-68
2023/05/08 10:12:53;;;;;;;9.00;1.50;;;;;;;12.73;68.14;100333.88;109558;1251;67679;-68
2023/05/08 10:15:32;;;;;;;3.70;1.50;;;;;;;12.88;68.79;100335.13;109547;1251;73636;-70
2023/05/08 10:18:04;;;;;;;3.00;1.20;;;;;;;13.49;68.65;100330.94;109525;1253;61490;-73
2023/05/08 10:20:32;;;;;;;1.60;1.50;;;;;;;14.61;65.45;100323.23;109524;1251;62646;-69
2023/05/08 10:22:59;;;;;;;1.90;1.10;;;;;;;15.53;60.59;100324.21;109540;1251;77071;-68
2023/05/08 10:25:31;;;;;;;1.40;1.30;;;;;;;16.08;56.28;100316.80;109565;1251;67590;-67
2023/05/08 10:28:25;;;;;;;2.50;2.10;;;;;;;16.50;54.41;100315.23;109558;1251;74658;-68
2023/05/08 10:30:52;;;;;;;3.10;1.20;;;;;;;16.39;50.60;100321.98;109449;1250;61701;-67
2023/05/08 10:33:19;;;;;;;3.80;1.20;;;;;;;15.89;48.89;100329.57;109596;1251;59701;-68
2023/05/08 10:35:46;;;;;;;1.60;1.50;;;;;;;15.11;51.30;100323.27;109413;1251;76665;-69
2023/05/08 10:38:13;;;;;;;1.70;1.10;;;;;;;14.50;53.58;100328.85;109448;1252;69757;-68
2023/05/08 10:40:40;;;;;;;2.80;1.50;;;;;;;14.13;55.62;100332.36;109390;1253;75015;-66
2023/05/08 10:43:08;;;;;;;1.90;1.40;;;;;;;13.88;57.35;100334.87;109470;1251;62203;-67
2023/05/08 10:45:34;;;;;;;2.50;1.40;;;;;;;13.70;59.43;100336.90;109552;1251;61159;-69
2023/05/08 10:48:27;;;;;;;2.60;1.60;;;;;;;13.63;60.94;100335.79;109391;1251;75517;-67
2023/05/08 10:51:19;;;;;;;1.40;1.30;;;;;;;13.51;60.65;100334.29;109443;1251;70811;-68
2023/05/08 10:53:58;;;;;;;1.50;1.30;;;;;;;13.57;61.07;100335.26;109536;1251;73125;-67
2023/05/08 10:56:28;;;;;;;1.90;1.50;;;;;;;13.79;61.38;100330.80;109533;1251;61058;-66
2023/05/08 10:58:56;;;;;;;2.70;1.60;;;;;;;14.02;61.06;100330.05;109520;1251;61612;-67
2023/05/08 11:01:24;;;;;;;2.60;1.60;;;;;;;14.20;60.30;100326.71;109549;1251;76784;-68
2023/05/08 11:03:51;;;;;;;1.80;1.60;;;;;;;14.32;59.58;100321.98;109578;1251;68539;-67
2023/05/08 11:06:40;;;;;;;1.90;1.00;;;;;;;14.43;59.31;100322.50;109483;1254;74975;-67
2023/05/08 11:09:07;;;;;;;1.50;1.30;;;;;;;14.57;58.24;100320.55;109491;1251;60458;-69
2023/05/08 11:11:37;;;;;;;2.10;1.50;;;;;;;14.63;57.71;100322.95;109571;1251;61185;-69
2023/05/08 11:14:07;;;;;;;1.20;1.10;;;;;;;14.74;56.18;100322.27;109410;1251;76974;-68
2023/05/08 11:16:52;;;;;;;1.70;1.50;;;;;;;14.76;53.80;100322.17;109562;1251;66792;-70
2023/05/08 11:19:20;;;;;;;1.20;1.10;;;;;;;14.69;52.04;100329.75;109467;1251;73130;-69
2023/05/08 11:22:20;;;;;;;3.10;1.40;;;;;;;14.44;51.40;100321.98;109588;1253;60468;-69
2023/05/08 11:24:57;;;;;;;1.70;1.60;;;;;;;14.19;51.87;100320.79;109548;1253;60397;-69
2023/05/08 11:27:32;;;;;;;2.40;1.30;;;;;;;14.05;52.97;100325.39;109554;1251;75865;-69